Time;durP1;ratioP1;P1;durP2;ratioP2;P2;SDS_P1;SDS_P2;PMS_P1;PMS_P2;Temp;Humidity;BMP_temperature;BMP_pressure;BME280_temperature;BME280_humidity;BME280_pressure;Samples;Min_cycle;Max_cycle;Signal;HPM_P1;HPM_P2
2021/12/07 05:00:15;;;;;;;;;1.33;0.67;;;;;8.09;61.95;100945.72;6107785;23;45730;31
2021/12/07 05:02:43;;;;;;;;;3.00;1.00;;;;;8.71;62.27;101043.88;6064438;23;45305;-90
2021/12/07 05:05:11;;;;;;;;;1.67;0.00;;;;;8.63;62.34;101036.13;6039513;23;45384;-90
2021/12/07 05:07:42;;;;;;;;;1.00;1.00;;;;;8.21;62.32;100963.91;6065427;23;45185;-91
2021/12/07 05:10:24;;;;;;;;;0.00;0.00;;;;;8.31;62.19;100983.97;6039719;23;45485;-91
2021/12/07 05:13:35;;;;;;;;;2.00;1.33;;;;;8.09;62.59;100962.50;6063742;23;45295;-91
2021/12/07 05:16:27;;;;;;;;;3.67;2.33;;;;;8.04;62.31;100944.06;6057404;23;45272;-90
2021/12/07 05:34:52;;;;;;;;;2.67;1.67;;;;;8.24;62.19;100998.34;6066215;23;45401;-90
2021/12/07 05:40:07;;;;;;;;;3.00;1.00;;;;;8.58;62.40;101061.97;6064815;23;45722;-91
2021/12/07 05:42:35;;;;;;;;;1.67;1.00;;;;;8.56;62.95;101055.84;6065841;23;46047;-91
2021/12/07 05:45:01;;;;;;;;;4.00;1.00;;;;;8.22;62.44;100997.53;6039121;23;45590;-90
2021/12/07 05:47:26;;;;;;;;;1.00;1.00;;;;;8.17;62.33;100989.72;6065120;23;45373;-91
2021/12/07 05:49:52;;;;;;;;;4.00;1.00;;;;;8.59;62.33;101060.19;6063311;23;47389;-87
2021/12/07 05:52:17;;;;;;;;;1.33;1.33;;;;;8.57;62.75;101062.91;6039248;23;45688;-91
2021/12/07 05:54:42;;;;;;;;;6.00;1.67;;;;;8.47;61.88;101044.63;6065797;23;45474;-90
2021/12/07 05:57:08;;;;;;;;;0.67;0.67;;;;;8.29;62.20;101025.66;6064150;23;45499;-89
2021/12/07 05:59:33;;;;;;;;;3.00;2.00;;;;;8.58;62.44;101071.75;6065682;23;46292;-89
2021/12/07 06:01:59;;;;;;;;;4.00;1.67;;;;;7.58;62.65;100899.44;6064485;23;45268;-90
2021/12/07 06:04:24;;;;;;;;;2.00;2.00;;;;;8.58;62.25;101069.09;6063970;23;45279;-91
2021/12/07 06:06:49;;;;;;;;;2.67;2.00;;;;;8.19;62.15;101002.91;6065747;23;45450;-90
2021/12/07 06:09:15;;;;;;;;;5.00;3.00;;;;;8.00;62.11;100965.44;6065589;23;46354;-87
2021/12/07 06:11:42;;;;;;;;;1.67;1.00;;;;;8.29;62.03;101011.47;6040000;23;45376;-87
2021/12/07 06:14:09;;;;;;;;;2.00;2.00;;;;;8.53;62.05;101050.63;6064986;23;45201;-90
2021/12/07 06:16:35;;;;;;;;;2.00;2.00;;;;;8.35;62.04;101016.63;6065772;23;45387;-90
2021/12/07 06:19:00;;;;;;;;;3.00;3.00;;;;;8.40;62.61;101028.00;6065423;23;45459;-86
2021/12/07 06:21:26;;;;;;;;;3.00;3.00;;;;;8.07;62.20;100961.69;6065340;23;45388;-89
2021/12/07 06:23:52;;;;;;;;;2.33;1.00;;;;;8.39;61.88;101000.53;6065644;23;45515;-87
2021/12/07 06:26:18;;;;;;;;;2.67;2.00;;;;;8.42;62.21;100995.16;6065556;23;45729;-91
2021/12/07 06:28:43;;;;;;;;;3.00;1.33;;;;;8.27;62.16;100971.72;6037948;23;48436;-89
2021/12/07 06:31:09;;;;;;;;;2.00;2.00;;;;;8.60;61.68;101024.75;6063059;23;45688;-86
2021/12/07 06:33:34;;;;;;;;;2.00;2.00;;;;;8.12;62.12;100937.66;6039642;23;45453;-91
2021/12/07 06:36:03;;;;;;;;;1.67;1.67;;;;;8.60;61.63;101003.50;6066087;23;45429;-91
2021/12/07 06:38:32;;;;;;;;;13.33;9.67;;;;;8.38;61.63;100985.53;6039473;23;47447;-91
2021/12/07 06:41:03;;;;;;;;;6.67;6.33;;;;;8.12;62.13;100930.53;6039393;23;45725;-86
2021/12/07 06:43:28;;;;;;;;;4.00;3.00;;;;;8.09;61.84;100933.31;6064839;23;45375;-88
2021/12/07 06:45:54;;;;;;;;;3.00;3.00;;;;;7.95;61.38;100917.78;6063512;23;45613;-89
2021/12/07 06:48:20;;;;;;;;;4.00;4.00;;;;;7.75;61.67;100886.56;6039140;23;47993;-87
2021/12/07 06:50:46;;;;;;;;;3.00;3.00;;;;;7.86;61.78;100901.28;6065554;23;45423;-86
2021/12/07 06:53:11;;;;;;;;;6.33;3.67;;;;;8.45;61.92;100989.78;6064929;23;45343;-88
2021/12/07 06:55:37;;;;;;;;;4.67;4.00;;;;;8.39;61.24;100978.44;6066592;23;45363;-90
2021/12/07 06:58:03;;;;;;;;;6.00;5.00;;;;;8.43;61.69;100986.28;6065693;23;46241;-89
2021/12/07 07:00:29;;;;;;;;;4.00;4.00;;;;;8.42;61.71;100988.97;6065544;23;45376;-88
2021/12/07 07:02:54;;;;;;;;;5.00;4.00;;;;;8.40;62.48;100977.53;6040736;23;45319;-90
2021/12/07 07:05:20;;;;;;;;;4.33;4.33;;;;;8.25;62.60;100941.69;6066578;23;45468;-89
2021/12/07 07:07:46;;;;;;;;;9.00;5.00;;;;;8.44;62.47;100968.56;6066222;23;45288;-89
2021/12/07 07:10:15;;;;;;;;;5.00;5.00;;;;;8.47;62.10;100971.09;6065686;23;45263;-88
2021/12/07 07:12:41;;;;;;;;;8.33;7.00;;;;;8.23;62.18;100931.09;6063082;23;45391;-89
2021/12/07 07:15:08;;;;;;;;;7.00;5.67;;;;;8.43;61.84;100965.03;6064043;23;45624;-88
2021/12/07 07:17:33;;;;;;;;;7.00;6.67;;;;;8.26;62.33;100932.78;6066246;23;45320;-89
2021/12/07 07:19:59;;;;;;;;;10.00;6.67;;;;;8.42;62.34;100957.97;6066384;23;45250;-89
2021/12/07 07:22:24;;;;;;;;;8.67;6.33;;;;;8.43;61.93;100959.72;6065613;23;45298;-89
2021/12/07 07:24:50;;;;;;;;;6.67;5.33;;;;;8.01;62.54;100884.91;6066618;23;45446;-85
2021/12/07 07:27:15;;;;;;;;;12.67;10.67;;;;;8.40;62.47;100949.19;6064745;23;52872;-84
2021/12/07 07:29:41;;;;;;;;;17.33;14.33;;;;;8.15;62.51;100903.94;6064788;23;45268;-84
2021/12/07 07:32:07;;;;;;;;;21.67;17.67;;;;;8.36;62.71;100938.69;6065277;23;45275;-86
2021/12/07 07:34:32;;;;;;;;;19.00;16.00;;;;;8.36;62.61;100928.06;6066203;23;45478;-85
2021/12/07 07:36:57;;;;;;;;;11.67;8.00;;;;;8.18;62.91;100895.84;6065631;23;45419;-86
2021/12/07 07:39:23;;;;;;;;;9.67;7.33;;;;;8.25;62.60;100889.44;6065511;23;45777;-86
2021/12/07 07:41:48;;;;;;;;;11.67;8.33;;;;;8.39;62.92;100902.28;6066512;23;45280;-86
2021/12/07 07:44:14;;;;;;;;;7.00;7.00;;;;;8.12;62.54;100864.19;6065989;23;45255;-86
2021/12/07 07:46:39;;;;;;;;;9.67;6.67;;;;;8.48;62.40;100910.91;6065667;23;45405;-87
2021/12/07 07:49:05;;;;;;;;;8.33;8.00;;;;;8.19;62.81;100855.13;6065732;23;45293;-86
2021/12/07 07:51:34;;;;;;;;;8.67;7.67;;;;;8.23;62.76;100853.22;6065483;23;45546;-85
2021/12/07 07:54:00;;;;;;;;;7.00;7.00;;;;;8.33;62.10;100853.78;6066867;23;45462;-85
2021/12/07 07:56:29;;;;;;;;;12.00;10.67;;;;;8.41;62.22;100865.09;6066084;23;45462;-85
2021/12/07 07:58:56;;;;;;;;;11.67;9.00;;;;;8.46;62.55;100871.09;6040177;23;45805;-85
2021/12/07 08:01:23;;;;;;;;;8.00;8.00;;;;;8.59;62.06;100892.81;6064660;23;45316;-85
2021/12/07 08:03:52;;;;;;;;;10.67;9.00;;;;;8.51;62.05;100858.53;6066618;23;45304;-85
2021/12/07 08:06:17;;;;;;;;;10.67;9.67;;;;;8.38;62.25;100828.84;6065705;23;46152;-84
2021/12/07 08:08:43;;;;;;;;;8.33;8.33;;;;;8.41;62.44;100842.03;6066079;23;45320;-84
2021/12/07 08:11:09;;;;;;;;;10.00;10.00;;;;;8.48;62.04;100847.16;6066219;23;45163;-84
2021/12/07 08:13:34;;;;;;;;;9.33;9.00;;;;;8.44;62.07;100830.44;6066397;23;45413;-85
2021/12/07 08:16:00;;;;;;;;;15.00;14.67;;;;;8.72;62.32;100866.72;6066316;23;45965;-85
2021/12/07 08:18:26;;;;;;;;;21.33;19.67;;;;;8.60;62.11;100858.22;6040445;23;45288;-84
2021/12/07 08:20:51;;;;;;;;;18.33;16.67;;;;;8.62;62.35;100853.72;6064688;23;45251;-85
2021/12/07 08:23:17;;;;;;;;;23.67;21.00;;;;;8.45;62.56;100813.56;6066408;23;45311;-85
2021/12/07 08:25:47;;;;;;;;;15.00;11.67;;;;;8.61;62.44;100833.38;6039933;23;47210;-84
2021/12/07 08:28:14;;;;;;;;;22.00;20.00;;;;;8.62;62.82;100832.47;6066483;23;45312;-85
2021/12/07 08:30:43;;;;;;;;;19.67;17.00;;;;;8.58;62.28;100833.50;6039917;23;45261;-92
2021/12/07 08:33:09;;;;;;;;;21.67;18.33;;;;;8.16;62.63;100750.81;6040925;23;45457;-90
2021/12/07 08:35:35;;;;;;;;;17.33;17.00;;;;;7.86;62.85;100687.22;6040365;23;47302;-89
2021/12/07 08:38:00;;;;;;;;;19.67;16.00;;;;;8.22;62.67;100761.22;6066228;23;45328;-89
2021/12/07 08:40:29;;;;;;;;;20.00;16.00;;;;;8.15;62.62;100731.38;6040291;23;45423;-88
2021/12/07 08:42:55;;;;;;;;;17.00;13.33;;;;;8.68;62.80;100834.03;6039536;23;45358;-89
2021/12/07 08:45:22;;;;;;;;;18.00;17.33;;;;;8.05;63.08;100711.34;6063606;23;45495;-86
2021/12/07 08:47:48;;;;;;;;;17.33;17.33;;;;;8.50;62.92;100805.44;6062140;23;45994;-86
2021/12/07 08:50:21;;;;;;;;;23.67;18.00;;;;;8.18;63.00;100725.94;6037313;23;45406;-86
2021/12/07 08:52:49;;;;;;;;;20.00;17.33;;;;;8.25;62.68;100714.19;6038464;23;45476;-88
2021/12/07 09:00:27;;;;;;;;;19.00;18.00;;;;;8.33;62.96;100748.44;6065086;23;45535;-87
2021/12/07 09:02:53;;;;;;;;;18.00;14.33;;;;;8.13;62.80;100717.28;6064918;23;45327;-87
2021/12/07 09:05:18;;;;;;;;;19.33;14.67;;;;;8.53;63.09;100774.34;6062618;23;48296;-85
2021/12/07 09:07:46;;;;;;;;;16.33;16.00;;;;;8.40;63.44;100744.69;6064844;23;45326;-88
2021/12/07 09:10:11;;;;;;;;;12.67;11.67;;;;;8.33;62.97;100743.13;6060191;23;45455;-87
2021/12/07 09:12:37;;;;;;;;;15.00;15.00;;;;;8.09;63.15;100690.88;6039338;23;45545;-91
2021/12/07 09:15:04;;;;;;;;;15.00;15.00;;;;;8.00;63.22;100690.25;6038417;23;45923;-92
2021/12/07 09:17:29;;;;;;;;;15.67;14.33;;;;;7.76;63.23;100648.66;6040143;23;45789;-88
2021/12/07 09:19:55;;;;;;;;;16.00;14.33;;;;;8.34;63.29;100738.69;6065878;23;45405;-87
2021/12/07 09:22:20;;;;;;;;;18.00;12.33;;;;;8.37;63.66;100727.97;6065565;23;45487;-86
2021/12/07 09:24:46;;;;;;;;;14.67;12.67;;;;;7.91;63.35;100642.81;6038648;23;47140;-86
2021/12/07 09:27:11;;;;;;;;;14.67;13.67;;;;;7.85;63.74;100644.81;6064488;23;45220;-86
2021/12/07 09:29:37;;;;;;;;;13.33;11.67;;;;;7.96;63.93;100658.56;6040937;23;45319;-94
2021/12/07 09:32:04;;;;;;;;;17.33;12.00;;;;;8.30;64.16;100721.13;6043188;23;45212;-93
2021/12/07 09:34:29;;;;;;;;;14.33;11.67;;;;;7.89;64.34;100679.16;6066078;23;47864;-92
2021/12/07 09:36:55;;;;;;;;;17.67;15.67;;;;;7.25;64.20;100581.38;6041189;23;45634;-94
2021/12/07 09:39:20;;;;;;;;;15.33;15.33;;;;;8.11;64.46;100713.78;6041542;23;45197;-94
2021/12/07 09:41:55;;;;;;;;;18.33;14.00;;;;;7.49;64.72;100605.34;6042490;23;45266;-93
2021/12/07 09:44:21;;;;;;;;;15.67;13.67;;;;;7.89;64.66;100672.97;6041499;23;46981;-92
2021/12/07 09:46:46;;;;;;;;;14.33;14.00;;;;;7.70;64.54;100643.53;6039803;23;45338;-89
2021/12/07 09:49:12;;;;;;;;;13.33;9.33;;;;;8.19;64.93;100730.34;6065629;23;45367;-88
2021/12/07 09:51:39;;;;;;;;;10.67;10.67;;;;;7.45;64.35;100609.03;6067590;23;45334;-94
2021/12/07 09:54:08;;;;;;;;;7.33;7.33;;;;;7.84;64.77;100686.38;6067258;23;45304;-96
2021/12/07 09:56:34;;;;;;;;;13.00;11.00;;;;;7.15;64.99;100570.19;6042886;23;45275;-95
2021/12/07 09:59:00;;;;;;;;;10.00;10.00;;;;;7.16;65.35;100586.97;6042705;23;45182;-96
2021/12/07 10:01:29;;;;;;;;;12.00;10.67;;;;;7.71;65.33;100670.03;6052827;23;45493;-94
2021/12/07 10:03:57;;;;;;;;;14.00;13.00;;;;;7.56;65.60;100658.16;6066284;23;47719;-96
2021/12/07 10:06:22;;;;;;;;;15.00;11.33;;;;;7.97;65.47;100730.19;6068720;23;45183;-95
2021/12/07 10:08:48;;;;;;;;;13.33;9.33;;;;;6.58;64.81;100489.03;6067381;23;45238;-96
2021/12/07 10:11:15;;;;;;;;;11.33;9.00;;;;;7.99;65.29;100727.50;6067721;23;45428;-95
2021/12/07 10:13:42;;;;;;;;;16.33;11.67;;;;;7.42;65.75;100603.81;6066458;23;47051;-96
2021/12/07 10:16:10;;;;;;;;;13.00;10.33;;;;;7.94;65.29;100673.72;6067852;23;46316;-96
2021/12/07 10:18:39;;;;;;;;;13.67;10.67;;;;;7.42;65.34;100585.25;6068954;23;45246;-96
2021/12/07 10:21:10;;;;;;;;;9.00;8.00;;;;;7.04;65.03;100521.97;6068827;23;45129;-94
2021/12/07 10:23:41;;;;;;;;;14.33;13.33;;;;;7.26;65.64;100553.06;6066523;23;46737;-95
2021/12/07 10:26:11;;;;;;;;;13.00;11.67;;;;;7.17;65.86;100525.09;6066593;23;45856;-96
2021/12/07 10:28:41;;;;;;;;;11.33;9.00;;;;;7.43;66.25;100542.78;6067110;23;45225;-96
2021/12/07 10:31:06;;;;;;;;;16.33;16.00;;;;;8.11;65.83;100646.56;6068114;23;45424;-96
2021/12/07 10:33:41;;;;;;;;;11.33;9.67;;;;;7.39;65.95;100512.84;6067520;23;46255;-93
2021/12/07 10:36:13;;;;;;;;;17.67;12.33;;;;;8.15;65.90;100626.97;6068135;23;45271;-95
2021/12/07 10:38:40;;;;;;;;;12.67;12.00;;;;;7.13;65.89;100444.81;6070984;23;45196;-96
2021/12/07 10:41:09;;;;;;;;;14.00;12.33;;;;;6.65;66.00;100360.81;6072259;23;45550;-95
2021/12/07 10:43:53;;;;;;;;;13.33;13.33;;;;;8.20;66.37;100591.34;6068121;23;47278;-96
2021/12/07 10:46:34;;;;;;;;;12.00;11.00;;;;;8.15;66.24;100574.75;6067696;23;45225;-95
2021/12/07 10:49:08;;;;;;;;;14.67;11.33;;;;;8.29;65.93;100573.34;6071223;23;44645;-90
2021/12/07 10:51:35;;;;;;;;;10.33;10.00;;;;;6.62;66.25;100281.47;6071056;23;45392;-96
2021/12/07 10:54:01;;;;;;;;;12.67;9.33;;;;;8.25;66.72;100569.94;6067981;23;46964;-96
2021/12/07 10:56:34;;;;;;;;;16.33;11.67;;;;;8.27;66.71;100544.22;6067792;23;45918;-95
2021/12/07 10:59:06;;;;;;;;;13.33;11.67;;;;;7.69;66.57;100434.91;6068167;23;45206;-92
2021/12/07 11:01:38;;;;;;;;;16.00;13.00;;;;;7.36;67.01;100395.44;6066926;23;45645;-96
2021/12/07 11:04:36;;;;;;;;;15.00;11.00;;;;;8.29;66.74;100526.44;6068147;23;45378;-94
2021/12/07 11:07:10;;;;;;;;;11.00;10.33;;;;;7.53;66.69;100379.75;6066599;23;45200;-94
2021/12/07 11:10:07;;;;;;;;;14.67;10.00;;;;;8.35;67.10;100501.44;6065715;23;45370;-92
2021/12/07 11:12:43;;;;;;;;;13.00;13.00;;;;;7.72;67.31;100390.56;6059913;23;45213;-94
2021/12/07 11:15:15;;;;;;;;;17.67;13.00;;;;;6.90;67.64;100214.25;6070931;23;47223;-96
2021/12/07 11:17:42;;;;;;;;;14.33;10.67;;;;;8.44;67.58;100450.66;6072328;23;45315;-96
2021/12/07 11:20:09;;;;;;;;;15.00;11.33;;;;;6.86;67.76;100165.84;6073268;23;45216;-94
2021/12/07 11:22:41;;;;;;;;;14.33;12.00;;;;;7.53;67.41;100275.50;6072664;23;45219;-96
2021/12/07 11:25:08;;;;;;;;;21.00;16.33;;;;;7.08;67.67;100172.97;6073300;23;47005;-96
2021/12/07 11:30:28;;;;;;;;;15.00;12.67;;;;;8.66;66.80;100408.13;6068635;23;45151;-94
2021/12/07 11:32:59;;;;;;;;;15.67;11.00;;;;;7.64;67.25;100212.28;6065387;23;45570;-95
2021/12/07 11:35:35;;;;;;;;;15.00;13.00;;;;;8.84;67.50;100385.25;6064763;23;47355;-92
2021/12/07 11:38:06;;;;;;;;;13.00;10.33;;;;;7.58;66.46;100172.75;6065009;23;45578;-96
2021/12/07 11:40:38;;;;;;;;;9.00;9.00;;;;;7.31;66.83;100093.41;6065737;23;45386;-93
2021/12/07 11:43:18;;;;;;;;;15.33;11.00;;;;;8.98;66.77;100361.59;6066389;23;45282;-94
2021/12/07 11:45:45;;;;;;;;;10.00;8.00;;;;;8.22;66.22;100214.34;6066750;23;47633;-94
2021/12/07 11:48:11;;;;;;;;;11.00;8.00;;;;;8.21;66.32;100210.78;6067923;23;45660;-94
2021/12/07 11:50:40;;;;;;;;;10.33;10.33;;;;;7.86;65.90;100147.72;6065469;23;45441;-94
2021/12/07 11:53:18;;;;;;;;;9.33;8.00;;;;;8.92;66.61;100313.16;6064740;23;45416;-92
2021/12/07 11:55:47;;;;;;;;;8.00;8.00;;;;;9.00;66.24;100297.75;6064097;23;47490;-92
2021/12/07 11:58:14;;;;;;;;;7.67;7.00;;;;;8.36;65.98;100166.81;6063410;23;45216;-89
2021/12/07 12:00:48;;;;;;;;;13.00;11.67;;;;;8.51;65.67;100169.75;6066177;23;45339;-93
2021/12/07 12:03:17;;;;;;;;;13.00;8.00;;;;;9.29;65.73;100275.16;6039610;23;45339;-92
2021/12/07 12:05:44;;;;;;;;;10.33;8.33;;;;;9.34;65.59;100277.59;6040492;23;47335;-88
2021/12/07 12:08:13;;;;;;;;;10.33;9.00;;;;;9.37;65.74;100265.03;6065217;23;45506;-89
2021/12/07 12:10:47;;;;;;;;;8.67;6.67;;;;;9.08;65.56;100207.88;6042616;23;45256;-93
2021/12/07 12:13:51;;;;;;;;;9.67;7.67;;;;;9.37;66.02;100251.75;6042621;23;45466;-94
2021/12/07 12:16:25;;;;;;;;;9.67;7.00;;;;;8.75;65.82;100149.16;6044953;23;48239;-95
2021/12/07 12:19:40;;;;;;;;;7.00;6.00;;;;;8.62;65.88;100119.66;6043563;23;45261;-90
2021/12/07 12:22:24;;;;;;;;;6.00;6.00;;;;;7.81;65.93;99978.16;6069853;23;45280;-95
2021/12/07 12:24:52;;;;;;;;;8.00;7.00;;;;;7.87;65.96;99958.47;6043250;23;45367;-95
2021/12/07 12:27:33;;;;;;;;;8.00;8.00;;;;;7.80;65.54;99936.66;6043757;23;47771;-96
2021/12/07 12:30:04;;;;;;;;;7.33;7.00;;;;;8.57;66.00;100048.16;6045022;23;45434;-95
2021/12/07 12:32:36;;;;;;;;;7.00;6.00;;;;;9.47;65.40;100178.53;6038908;23;45344;-92
2021/12/07 12:35:08;;;;;;;;;10.67;7.33;;;;;8.76;65.45;100034.88;6038795;23;45591;-92
2021/12/07 12:37:34;;;;;;;;;5.33;5.33;;;;;8.53;64.98;99996.09;6039538;23;47147;-91
2021/12/07 12:40:05;;;;;;;;;10.00;9.33;;;;;9.55;65.38;100161.34;6038823;23;45518;-90
2021/12/07 12:42:35;;;;;;;;;10.00;8.00;;;;;9.48;65.33;100121.75;6039425;23;45581;-91
2021/12/07 12:45:16;;;;;;;;;7.00;7.00;;;;;9.48;65.10;100119.09;6038573;23;45558;-85
2021/12/07 12:47:42;;;;;;;;;13.00;8.67;;;;;9.22;65.25;100043.25;6036901;23;46945;-85
2021/12/07 12:50:32;;;;;;;;;5.33;4.33;;;;;9.58;65.29;100081.41;6061845;23;45342;-84
2021/12/07 12:53:03;;;;;;;;;10.00;8.33;;;;;9.49;65.32;100046.34;6033587;23;45389;-85
2021/12/07 12:55:51;;;;;;;;;10.00;7.00;;;;;9.60;65.28;100061.75;6039285;23;45488;-84
2021/12/07 12:58:20;;;;;;;;;5.00;4.67;;;;;9.75;65.01;100083.22;6062999;23;45577;-85
2021/12/07 13:00:57;;;;;;;;;10.67;6.33;;;;;9.78;64.96;100070.59;6063419;23;45462;-84
2021/12/07 13:03:23;;;;;;;;;7.33;4.33;;;;;9.69;64.74;100041.78;6064606;23;45316;-88
2021/12/07 13:06:02;;;;;;;;;5.00;5.00;;;;;9.78;64.84;100057.28;6064927;23;45401;-89
2021/12/07 13:08:28;;;;;;;;;6.00;4.33;;;;;9.18;64.75;99950.44;6038060;23;48400;-87
2021/12/07 13:11:02;;;;;;;;;9.33;7.00;;;;;9.86;64.52;100057.75;6064412;23;45334;-86
2021/12/07 13:13:33;;;;;;;;;6.00;6.00;;;;;9.77;64.60;100023.63;6064852;23;45398;-87
2021/12/07 13:15:59;;;;;;;;;5.67;5.67;;;;;9.96;64.37;100044.84;6064838;23;45359;-87
2021/12/07 13:18:32;;;;;;;;;8.33;6.33;;;;;9.72;64.54;100002.59;6064780;23;45406;-89
2021/12/07 13:20:57;;;;;;;;;5.67;4.67;;;;;9.98;63.92;100036.78;6063581;23;45408;-88
2021/12/07 13:23:31;;;;;;;;;8.00;6.00;;;;;9.99;64.26;100035.81;6040051;23;45298;-90
2021/12/07 13:25:57;;;;;;;;;5.67;5.00;;;;;9.29;64.13;99922.38;6068521;23;45280;-93
2021/12/07 13:28:24;;;;;;;;;4.00;3.00;;;;;10.04;63.82;100026.63;6041870;23;47413;-93
2021/12/07 13:30:53;;;;;;;;;6.33;3.33;;;;;9.94;63.76;99991.66;6041991;23;45482;-94
2021/12/07 13:33:38;;;;;;;;;5.33;4.67;;;;;9.89;63.47;99990.19;6040755;23;45226;-92
2021/12/07 13:36:47;;;;;;;;;5.00;4.67;;;;;10.02;63.76;100020.56;6041169;23;45289;-92
2021/12/07 13:39:12;;;;;;;;;6.33;4.00;;;;;10.04;63.57;100041.75;6006851;23;46404;-93
2021/12/07 13:41:49;;;;;;;;;5.00;4.00;;;;;9.59;63.91;99950.94;6007205;23;45344;-92
2021/12/07 13:44:16;;;;;;;;;6.00;3.67;;;;;10.01;63.96;100000.19;5983615;23;45387;-93
2021/12/07 13:46:42;;;;;;;;;7.00;4.67;;;;;9.63;63.74;99917.06;6007775;23;45327;-92
2021/12/07 13:49:10;;;;;;;;;7.67;3.33;;;;;8.70;64.00;99728.78;5982822;23;47823;-91
2021/12/07 13:51:37;;;;;;;;;5.33;4.33;;;;;9.00;63.71;99792.75;5983076;23;45838;-94
2021/12/07 13:54:04;;;;;;;;;8.00;8.00;;;;;9.34;64.22;99860.09;5983991;23;45309;-93
2021/12/07 13:56:39;;;;;;;;;8.00;6.00;;;;;9.11;64.25;99840.00;6007256;23;45318;-94
2021/12/07 13:59:13;;;;;;;;;6.67;5.00;;;;;9.55;64.28;99904.16;5983350;23;48066;-93
2021/12/07 14:01:41;;;;;;;;;6.67;5.00;;;;;10.05;64.08;99968.94;6001276;23;45324;-94
2021/12/07 14:04:07;;;;;;;;;5.00;2.33;;;;;10.11;63.65;99969.47;6010892;23;45315;-92
2021/12/07 14:06:45;;;;;;;;;9.00;8.00;;;;;9.53;63.71;99871.47;6012168;23;45406;-96
2021/12/07 14:09:11;;;;;;;;;7.00;5.33;;;;;9.19;63.13;99797.94;6020204;23;47502;-94
2021/12/07 14:11:38;;;;;;;;;6.67;6.67;;;;;8.66;63.12;99701.50;6066896;23;45405;-94
2021/12/07 14:14:10;;;;;;;;;9.67;7.67;;;;;8.74;63.27;99696.66;6068088;23;45337;-93
2021/12/07 14:16:36;;;;;;;;;13.00;10.33;;;;;9.72;62.94;99869.53;6065868;23;45422;-94
2021/12/07 14:19:02;;;;;;;;;4.00;2.33;;;;;9.55;62.84;99837.66;6065359;23;47067;-92
2021/12/07 14:21:29;;;;;;;;;10.67;9.00;;;;;10.33;62.90;99947.88;6065924;23;45369;-92
2021/12/07 14:24:07;;;;;;;;;10.00;8.67;;;;;9.38;62.85;99766.75;6065613;23;45272;-93
2021/12/07 14:26:36;;;;;;;;;6.00;5.00;;;;;9.36;62.28;99762.47;6065149;23;45252;-93
2021/12/07 14:29:24;;;;;;;;;7.67;6.33;;;;;9.76;62.21;99808.16;6064649;23;47074;-92
2021/12/07 14:31:52;;;;;;;;;5.67;4.67;;;;;9.33;62.31;99712.97;6064381;23;45203;-93
2021/12/07 14:34:30;;;;;;;;;5.00;4.67;;;;;9.50;62.26;99749.28;6065253;23;45360;-93
2021/12/07 14:36:58;;;;;;;;;6.00;6.00;;;;;10.23;62.44;99852.56;6065741;23;45432;-92
2021/12/07 14:39:27;;;;;;;;;4.00;4.00;;;;;9.32;62.47;99699.75;6065413;23;47191;-93
2021/12/07 14:42:00;;;;;;;;;5.67;5.67;;;;;10.29;62.28;99839.78;6065294;23;45341;-93
2021/12/07 14:44:29;;;;;;;;;7.00;6.00;;;;;10.33;62.34;99824.50;6064760;23;45270;-94
2021/12/07 14:46:57;;;;;;;;;7.00;7.00;;;;;10.38;61.88;99810.91;6065414;23;45446;-93
2021/12/07 14:49:26;;;;;;;;;10.67;10.00;;;;;10.05;61.97;99766.63;6065370;23;47163;-92
2021/12/07 14:51:51;;;;;;;;;8.00;6.33;;;;;10.35;62.21;99774.66;6066103;23;45345;-95
2021/12/07 14:54:18;;;;;;;;;9.33;7.33;;;;;10.39;62.16;99783.31;6067997;23;45210;-95
2021/12/07 14:56:45;;;;;;;;;4.67;4.67;;;;;8.85;61.83;99516.28;6066031;23;45447;-94
2021/12/07 14:59:15;;;;;;;;;6.00;4.00;;;;;8.92;61.99;99521.22;6066203;23;48195;-94
2021/12/07 15:01:49;;;;;;;;;8.33;6.00;;;;;9.85;62.08;99682.56;6065004;23;45265;-94
2021/12/07 15:04:16;;;;;;;;;4.67;3.33;;;;;10.40;61.39;99764.59;6065213;23;45348;-91
2021/12/07 15:06:49;;;;;;;;;3.33;3.33;;;;;9.85;61.62;99648.81;6066629;23;45412;-96
2021/12/07 15:09:17;;;;;;;;;3.00;3.00;;;;;9.29;61.76;99543.91;6064132;23;47291;-94
2021/12/07 15:11:49;;;;;;;;;6.00;3.67;;;;;9.98;61.61;99656.13;6064763;23;45316;-94
2021/12/07 15:14:17;;;;;;;;;4.33;4.33;;;;;9.49;61.31;99561.38;6065361;23;45288;-94
2021/12/07 15:16:46;;;;;;;;;5.00;2.00;;;;;9.96;60.91;99629.56;6066291;23;45373;-95
2021/12/07 15:19:12;;;;;;;;;6.00;4.00;;;;;10.09;61.24;99648.31;6066690;23;47454;-94
2021/12/07 15:21:38;;;;;;;;;3.33;3.00;;;;;8.86;61.01;99464.84;6066297;23;45291;-92
2021/12/07 15:24:10;;;;;;;;;7.00;4.67;;;;;8.80;60.87;99421.81;6066160;23;45294;-94
2021/12/07 15:26:37;;;;;;;;;4.00;4.00;;;;;9.07;60.78;99464.56;6067103;23;45208;-95
2021/12/07 15:29:02;;;;;;;;;4.33;4.00;;;;;10.39;61.24;99652.81;6066786;23;47247;-95
2021/12/07 15:31:31;;;;;;;;;5.33;4.00;;;;;9.73;60.52;99527.16;6066586;23;45393;-93
2021/12/07 15:33:58;;;;;;;;;9.67;6.33;;;;;10.32;60.63;99628.34;6066649;23;45411;-93
2021/12/07 15:36:28;;;;;;;;;6.33;4.67;;;;;9.78;60.84;99537.53;6067262;23;45227;-94
2021/12/07 15:39:15;;;;;;;;;5.67;4.00;;;;;10.38;60.78;99611.16;6067014;23;48053;-93
2021/12/07 15:41:44;;;;;;;;;5.00;3.00;;;;;9.38;60.55;99450.31;6067257;23;45308;-95
2021/12/07 15:44:14;;;;;;;;;6.33;3.67;;;;;9.52;60.58;99462.78;6067181;23;45197;-95
2021/12/07 15:46:48;;;;;;;;;4.00;4.00;;;;;9.56;59.97;99450.16;6068527;23;45570;-95
2021/12/07 15:49:13;;;;;;;;;3.67;3.67;;;;;9.93;60.14;99513.50;6064819;23;47304;-93
2021/12/07 15:51:50;;;;;;;;;6.00;4.33;;;;;9.13;59.83;99336.63;6069086;23;45477;-93
2021/12/07 15:54:16;;;;;;;;;4.00;4.00;;;;;10.52;59.48;99557.88;6070243;23;45433;-94
2021/12/07 15:56:42;;;;;;;;;2.00;1.00;;;;;9.54;59.47;99380.25;6068382;23;45335;-94
2021/12/07 15:59:15;;;;;;;;;3.67;3.00;;;;;10.50;60.12;99536.66;6067889;23;48224;-95
2021/12/07 16:01:41;;;;;;;;;3.67;2.00;;;;;9.14;60.56;99301.13;6065975;23;45392;-94
2021/12/07 16:04:06;;;;;;;;;5.00;5.00;;;;;9.17;61.30;99319.53;6066801;23;45310;-93
2021/12/07 16:06:36;;;;;;;;;6.00;6.00;;;;;9.43;61.85;99346.31;6066640;23;45198;-93
2021/12/07 16:09:17;;;;;;;;;5.00;4.67;;;;;10.23;61.85;99469.97;6065732;23;47915;-92
2021/12/07 16:11:43;;;;;;;;;7.00;5.67;;;;;9.09;63.37;99276.63;6064017;23;45390;-92
2021/12/07 16:14:09;;;;;;;;;4.67;3.33;;;;;9.86;62.70;99394.22;6063924;23;45522;-91
2021/12/07 16:16:38;;;;;;;;;5.33;3.33;;;;;9.02;63.38;99272.63;6064404;23;45280;-91
2021/12/07 16:19:06;;;;;;;;;5.33;5.33;;;;;9.69;63.33;99376.63;6063716;23;48096;-92
2021/12/07 16:21:33;;;;;;;;;7.33;7.00;;;;;9.30;63.79;99323.16;6063965;23;45584;-90
2021/12/07 16:24:00;;;;;;;;;8.00;6.67;;;;;9.71;63.92;99391.53;6063792;23;45390;-91
2021/12/07 16:26:27;;;;;;;;;6.67;5.00;;;;;10.15;64.81;99457.13;6064585;23;45488;-92
2021/12/07 16:28:58;;;;;;;;;6.33;5.33;;;;;9.56;64.39;99360.59;6063966;23;47226;-92
2021/12/07 16:31:26;;;;;;;;;4.67;3.33;;;;;10.02;65.30;99453.53;6065997;23;45377;-93
2021/12/07 16:33:53;;;;;;;;;4.67;4.33;;;;;9.56;65.60;99373.03;6065906;23;45517;-93
2021/12/07 16:36:21;;;;;;;;;9.33;7.00;;;;;9.62;66.24;99384.16;6065403;23;45307;-94
2021/12/07 16:38:46;;;;;;;;;3.33;3.00;;;;;8.82;66.92;99277.34;6064049;23;47482;-90
2021/12/07 16:41:14;;;;;;;;;6.67;6.33;;;;;9.12;68.22;99295.03;6068770;23;45201;-96
2021/12/07 16:43:41;;;;;;;;;9.33;6.33;;;;;9.78;69.26;99375.22;6067669;23;45428;-94
2021/12/07 16:46:10;;;;;;;;;10.33;6.67;;;;;8.87;68.78;99153.06;6068037;23;45194;-96
2021/12/07 16:48:36;;;;;;;;;7.67;6.00;;;;;9.13;68.88;99144.38;6068048;23;47033;-94
2021/12/07 16:51:03;;;;;;;;;7.33;4.33;;;;;8.19;69.05;98930.72;6066671;23;45282;-91
2021/12/07 16:53:29;;;;;;;;;7.67;4.00;;;;;8.96;68.97;98967.44;6091941;23;45237;-92
2021/12/07 16:55:54;;;;;;;;;4.00;3.00;;;;;8.92;68.27;98920.75;6064939;23;45496;-93
2021/12/07 16:58:20;;;;;;;;;7.00;3.33;;;;;8.58;68.14;98999.97;6067607;23;46198;-96
2021/12/07 17:00:47;;;;;;;;;5.33;4.33;;;;;8.48;68.21;99033.38;6064217;23;45286;-91
2021/12/07 17:03:15;;;;;;;;;4.00;4.00;;;;;8.70;67.22;99067.41;6064376;23;45224;-93
2021/12/07 17:05:46;;;;;;;;;7.00;5.00;;;;;8.26;68.20;99026.69;6066014;23;45271;-91